Woodlawn, Tennessee
Current Conditions -  °F | °C
As of 11:52 AM on Friday 31 Oct 2014 (Local Time) from KCKV Reporting Station
Overcast Overcast  
Wind Chill: 51°   Ceiling: 2300
Heat Index: 51°   Visibility: 10mi
Dew Point: 45°   Wind: 13mph
Humidity: 80%   Direction: 330°NNW
Pressure: 30.05"   Gusts: NA
Location:  36.54°N, 87.51°W
Report Text: KCKV 311652Z AUTO 33011KT 10SM FEW018 BKN023 OVC055 11/07 A3005 RMK AO2 SLP175 T01060072
Loading
Personal Weather Stations






























Interactive Weather Map New forecast layout! Learn more

10-Day Weather Forecast

Advertisements
Track Severe Weather on mobile